Bookmark and Share
Track history (hours):
 

Algoma Mariner

Last reported at 2014-Apr-13 22:32 UTC. Time now 2014-Apr-17 09:42 UTC.
Position N 46°12' W 072°53'.

Length 225 m; draft 7.2 m.

Type: Cargo ship. MMSI: 316014050.

NotesDate/timePositionNaut miles runAvg speedWind from/ knotsBaromVisibWave heightAir tempDewpointWater temp
2014-Apr-13 22:32N 46°12' W 072°53'2612.3
2014-Apr-13 20:23N 45°51' W 073°16'1 1.5
2014-Apr-13 19:33N 45°50' W 073°17'0 0.0
2014-Apr-13 18:33N 45°50' W 073°17'0 0.0
2014-Apr-13 17:33N 45°50' W 073°17'0 0.0
2014-Apr-13 16:33N 45°50' W 073°17'0 0.0
2014-Apr-13 15:33N 45°50' W 073°17'0 0.0
2014-Apr-13 14:33N 45°50' W 073°17'0 0.0
2014-Apr-13 13:33N 45°50' W 073°17'0 0.0
2014-Apr-13 12:33N 45°50' W 073°17'0 0.0
2014-Apr-13 11:33N 45°50' W 073°17'0 0.0
2014-Apr-13 10:33N 45°50' W 073°17'0 0.0
2014-Apr-13 09:33N 45°50' W 073°17'0 0.0
2014-Apr-13 08:33N 45°50' W 073°17'0 0.1
2014-Apr-13 07:33N 45°50' W 073°17'5 4.6
2014-Apr-13 06:33N 45°54' W 073°14'34 8.4
2014-Apr-13 02:33N 46°17' W 072°37'6 6.3
2014-Apr-13 01:33N 46°21' W 072°31'8 8.5
2014-Apr-13 00:33N 46°26' W 072°21'8 7.9
2014-Apr-12 23:33N 46°31' W 072°13'8 7.6
2014-Apr-12 22:33N 46°35' W 072°02'  
2014-Apr-06 07:33N 46°24' W 072°25'1211.5
2014-Apr-06 06:33N 46°16' W 072°38'3812.0
2014-Apr-06 03:25N 45°50' W 073°17'0 0.2
2014-Apr-06 02:33N 45°50' W 073°17'0 0.0
2014-Apr-05 17:27N 45°50' W 073°17'0 0.0
2014-Apr-05 16:33N 45°50' W 073°17'0 0.0
2014-Apr-05 15:33N 45°50' W 073°17'0 0.0
2014-Apr-05 14:33N 45°50' W 073°17'0 0.0
2014-Apr-05 13:33N 45°50' W 073°17'0 0.0
2014-Apr-05 12:33N 45°50' W 073°17'0 0.0
2014-Apr-05 11:33N 45°50' W 073°17'0 0.0
2014-Apr-05 10:33N 45°50' W 073°17'0 0.0
2014-Apr-05 09:33N 45°50' W 073°17'0 0.0
2014-Apr-05 08:33N 45°50' W 073°17'0 0.0
2014-Apr-05 07:33N 45°50' W 073°17'0 0.0
2014-Apr-05 06:33N 45°50' W 073°17'0 0.0
2014-Apr-05 05:33N 45°50' W 073°17'0 0.0
2014-Apr-05 04:33N 45°50' W 073°17'0 0.0
2014-Apr-05 03:33N 45°50' W 073°17'0 0.0
2014-Apr-05 02:33N 45°50' W 073°17'0 0.0
2014-Apr-05 01:33N 45°50' W 073°17'0 0.0
2014-Apr-05 00:33N 45°50' W 073°17'0 0.0
2014-Apr-04 23:33N 45°50' W 073°17'1 1.4
2014-Apr-04 22:33N 45°51' W 073°16'7 7.4
2014-Apr-04 21:33N 45°58' W 073°12'26 8.5
2014-Apr-04 18:33N 46°15' W 072°44'9 9.0
2014-Apr-04 17:33N 46°19' W 072°33'9 8.8
2014-Apr-04 16:33N 46°25' W 072°23'8 8.5
2014-Apr-04 15:33N 46°30' W 072°14'9 9.3
2014-Apr-04 14:33N 46°35' W 072°02'  

Dump ship's entire track history

sailing weather and tide predictions

Algoma Mariner — CFN5517 — position and weather